Time;durP1;ratioP1;P1;durP2;ratioP2;P2;SDS_P1;SDS_P2;PMS_P1;PMS_P2;Temp;Humidity;BMP_temperature;BMP_pressure;BME280_temperature;BME280_humidity;BME280_pressure;Samples;Min_cycle;Max_cycle;Signal;HPM_P1;HPM_P2
2022/04/10 00:00:41;;;;;;;3.97;1.80;;;6.30;75.10;;;;;;5053752;28;20040;-67
2022/04/10 00:03:06;;;;;;;5.22;1.77;;;6.30;75.50;;;;;;5052780;28;20021;-68
2022/04/10 00:05:32;;;;;;;3.80;1.75;;;6.30;75.60;;;;;;5053346;28;20032;-68
2022/04/10 00:07:58;;;;;;;4.63;1.65;;;6.30;75.80;;;;;;5052447;28;20021;-68
2022/04/10 00:10:23;;;;;;;5.93;1.92;;;6.20;76.60;;;;;;5053272;28;20450;-68
2022/04/10 00:12:49;;;;;;;5.40;2.00;;;6.30;76.30;;;;;;5052556;28;20025;-70
2022/04/10 00:15:15;;;;;;;5.03;1.88;;;6.20;76.60;;;;;;5052764;28;20036;-68
2022/04/10 00:17:41;;;;;;;6.30;2.60;;;6.20;76.90;;;;;;5051985;28;20056;-67
2022/04/10 00:20:09;;;;;;;6.90;2.75;;;6.20;77.30;;;;;;5052484;28;20377;-68
2022/04/10 00:22:42;;;;;;;5.72;2.25;;;6.20;77.90;;;;;;5053038;28;20064;-68
2022/04/10 00:25:13;;;;;;;3.78;2.28;;;6.10;78.10;;;;;;5052789;28;20543;-67
2022/04/10 00:27:42;;;;;;;4.67;2.23;;;6.10;78.60;;;;;;5053030;28;20031;-68
2022/04/10 00:30:11;;;;;;;6.20;2.50;;;6.10;78.80;;;;;;5050985;28;20378;-68
2022/04/10 00:32:37;;;;;;;7.45;2.80;;;6.10;79.30;;;;;;5052739;28;20116;-70
2022/04/10 00:35:07;;;;;;;7.03;2.92;;;6.00;79.50;;;;;;5051955;28;20108;-71
2022/04/10 00:37:34;;;;;;;8.70;2.90;;;6.00;79.90;;;;;;5052564;28;20052;-68
2022/04/10 00:39:59;;;;;;;3.45;2.10;;;6.00;80.20;;;;;;5052167;28;20025;-70
2022/04/10 00:42:39;;;;;;;5.97;2.30;;;6.00;80.30;;;;;;5052812;28;20035;-69
2022/04/10 00:45:06;;;;;;;5.90;2.50;;;6.00;80.40;;;;;;5052113;28;20036;-69
2022/04/10 00:47:32;;;;;;;5.47;2.70;;;6.00;81.00;;;;;;5052756;28;20089;-68
2022/04/10 00:49:58;;;;;;;4.30;2.55;;;6.00;81.30;;;;;;5051519;28;20044;-68
2022/04/10 00:52:44;;;;;;;4.82;2.60;;;5.90;81.60;;;;;;5052551;28;20167;-69
2022/04/10 00:55:10;;;;;;;3.80;2.28;;;5.90;81.70;;;;;;5051613;28;20064;-69
2022/04/10 00:57:36;;;;;;;5.40;2.50;;;5.90;81.90;;;;;;5052171;28;20032;-69
2022/04/10 01:00:09;;;;;;;7.10;2.60;;;5.90;82.20;;;;;;5051873;28;20029;-71
2022/04/10 01:02:35;;;;;;;5.72;2.67;;;5.90;82.50;;;;;;5052447;28;20120;-69
2022/04/10 01:05:02;;;;;;;7.47;2.85;;;5.90;82.50;;;;;;5051503;28;20503;-69
2022/04/10 01:07:29;;;;;;;6.30;2.60;;;5.90;82.70;;;;;;5052297;28;20036;-69
2022/04/10 01:09:55;;;;;;;6.70;2.55;;;5.80;82.90;;;;;;5051710;28;20075;-70
2022/04/10 01:12:21;;;;;;;8.40;2.25;;;5.80;83.10;;;;;;5052246;28;20032;-69
2022/04/10 01:14:47;;;;;;;5.28;2.33;;;5.90;83.40;;;;;;5052225;28;20135;-69
2022/04/10 01:17:14;;;;;;;5.65;2.80;;;5.80;83.30;;;;;;5051676;28;20040;-68
2022/04/10 01:19:41;;;;;;;6.80;3.00;;;5.80;83.30;;;;;;5052216;28;20025;-68
2022/04/10 01:22:08;;;;;;;5.25;2.65;;;5.80;83.30;;;;;;5051853;28;20078;-68
2022/04/10 01:24:36;;;;;;;6.55;2.53;;;5.80;83.40;;;;;;5051727;28;20108;-69
2022/04/10 01:27:02;;;;;;;6.20;2.50;;;5.80;83.10;;;;;;5050241;28;20128;-68
2022/04/10 01:29:28;;;;;;;6.18;2.80;;;5.80;83.90;;;;;;5051778;28;20461;-70
2022/04/10 01:31:55;;;;;;;6.97;2.60;;;5.70;83.90;;;;;;5051773;28;20021;-69
2022/04/10 01:34:21;;;;;;;5.00;2.38;;;5.70;84.10;;;;;;5052091;28;20484;-70
2022/04/10 01:36:46;;;;;;;5.20;2.20;;;5.70;84.20;;;;;;5052253;28;20029;-68
2022/04/10 01:39:15;;;;;;;4.45;2.10;;;5.70;84.40;;;;;;5051229;28;20362;-68
2022/04/10 01:41:41;;;;;;;4.55;2.58;;;5.70;84.50;;;;;;5051928;28;20448;-69
2022/04/10 01:44:08;;;;;;;5.40;2.35;;;5.70;84.60;;;;;;5051051;28;20059;-68
2022/04/10 01:46:35;;;;;;;6.10;2.30;;;5.70;84.60;;;;;;5051899;28;20052;-69
2022/04/10 01:49:02;;;;;;;6.35;2.50;;;5.70;84.70;;;;;;5051247;28;20025;-69
2022/04/10 01:51:28;;;;;;;4.63;1.95;;;5.60;84.80;;;;;;5051784;28;20432;-70
2022/04/10 01:53:54;;;;;;;5.60;2.15;;;5.60;85.00;;;;;;5051861;28;20033;-69
2022/04/10 01:56:21;;;;;;;4.93;2.50;;;5.60;85.30;;;;;;5050802;28;20350;-68
2022/04/10 01:58:48;;;;;;;4.93;2.67;;;5.60;85.60;;;;;;5051711;28;20025;-67
2022/04/10 02:01:15;;;;;;;5.28;2.08;;;5.60;85.90;;;;;;5050908;28;20450;-68
2022/04/10 02:03:42;;;;;;;3.67;2.22;;;5.50;86.00;;;;;;5051460;28;20036;-69
2022/04/10 02:06:10;;;;;;;5.13;2.17;;;5.50;86.30;;;;;;5051068;28;20025;-69
2022/04/10 02:08:36;;;;;;;6.30;2.53;;;5.50;86.50;;;;;;5051799;28;20415;-68
2022/04/10 02:11:11;;;;;;;3.08;2.10;;;5.50;86.60;;;;;;5054468;28;20032;-69
2022/04/10 02:13:37;;;;;;;7.05;2.30;;;5.50;86.70;;;;;;5055657;28;20021;-68
2022/04/10 02:16:03;;;;;;;4.85;2.35;;;5.50;86.90;;;;;;5054929;28;20036;-69
2022/04/10 02:18:28;;;;;;;6.40;2.20;;;5.50;86.70;;;;;;5055622;28;20029;-68
2022/04/10 02:20:54;;;;;;;5.32;1.80;;;5.40;86.90;;;;;;5055457;28;20021;-68
2022/04/10 02:23:19;;;;;;;6.35;2.42;;;5.40;87.30;;;;;;5054897;28;20017;-68
2022/04/10 02:25:45;;;;;;;4.10;2.25;;;5.40;87.70;;;;;;5055116;28;20116;-68
2022/04/10 02:28:10;;;;;;;5.40;2.22;;;5.40;87.90;;;;;;5054665;28;20087;-69
2022/04/10 02:30:38;;;;;;;5.32;2.60;;;5.40;88.20;;;;;;5055295;28;20354;-69
2022/04/10 02:33:03;;;;;;;6.13;2.40;;;5.40;88.50;;;;;;5054704;28;20047;-68
2022/04/10 02:35:29;;;;;;;7.63;2.58;;;5.30;88.70;;;;;;5055315;28;20462;-69
2022/04/10 02:37:55;;;;;;;6.22;2.78;;;5.30;89.10;;;;;;5054947;28;20039;-68
2022/04/10 02:40:20;;;;;;;4.45;2.28;;;5.30;89.60;;;;;;5054522;28;20032;-68
2022/04/10 02:42:46;;;;;;;6.43;2.65;;;5.30;90.10;;;;;;5054531;28;20020;-68
2022/04/10 02:45:12;;;;;;;5.45;2.33;;;5.30;90.20;;;;;;5054350;28;20101;-68
2022/04/10 02:47:37;;;;;;;11.73;3.17;;;5.20;90.70;;;;;;5055134;28;20036;-69
2022/04/10 02:50:05;;;;;;;4.75;2.65;;;5.20;90.60;;;;;;5054386;28;20478;-69
2022/04/10 02:52:31;;;;;;;6.10;2.70;;;5.20;90.70;;;;;;5054808;28;20073;-68
2022/04/10 02:54:56;;;;;;;6.22;3.13;;;5.30;90.80;;;;;;5054819;28;20458;-69
2022/04/10 02:57:22;;;;;;;5.95;3.00;;;5.30;90.90;;;;;;5054571;28;20045;-68
2022/04/10 02:59:48;;;;;;;6.30;2.90;;;5.30;90.90;;;;;;5054464;28;20025;-68
2022/04/10 03:02:13;;;;;;;5.50;2.92;;;5.20;91.20;;;;;;5054112;28;20461;-68
2022/04/10 03:04:39;;;;;;;5.25;2.95;;;5.20;91.20;;;;;;5054602;28;20036;-67
2022/04/10 03:07:05;;;;;;;4.32;2.58;;;5.20;91.40;;;;;;5054014;28;20028;-69
2022/04/10 03:09:30;;;;;;;6.93;3.03;;;5.20;91.50;;;;;;5054304;28;20029;-68
2022/04/10 03:11:56;;;;;;;3.85;3.00;;;5.20;91.60;;;;;;5054319;28;20047;-68
2022/04/10 03:14:22;;;;;;;8.88;3.40;;;5.20;91.60;;;;;;5054017;28;20036;-68
2022/04/10 03:16:47;;;;;;;5.95;3.33;;;5.10;91.70;;;;;;5054141;28;20060;-68
2022/04/10 03:19:13;;;;;;;5.95;3.20;;;5.20;91.50;;;;;;5053781;28;20087;-68
2022/04/10 03:21:39;;;;;;;6.03;3.40;;;5.20;91.50;;;;;;5054067;28;20025;-68
2022/04/10 03:24:05;;;;;;;5.05;2.92;;;5.20;91.50;;;;;;5053483;28;20052;-68
2022/04/10 03:29:14;;;;;;;3.83;3.00;;;5.10;91.30;;;;;;5053644;28;20393;-68
2022/04/10 03:31:59;;;;;;;8.38;3.60;;;5.10;91.40;;;;;;5053866;28;20029;-68
2022/04/10 03:34:24;;;;;;;6.25;3.35;;;5.10;91.20;;;;;;5053340;28;20072;-68
2022/04/10 03:36:50;;;;;;;7.70;3.42;;;5.10;91.40;;;;;;5054132;28;20351;-68
2022/04/10 03:39:16;;;;;;;8.45;3.60;;;5.20;91.10;;;;;;5053259;28;20115;-67
2022/04/10 03:41:41;;;;;;;6.85;3.63;;;5.10;91.00;;;;;;5053875;28;20355;-68
2022/04/10 03:44:07;;;;;;;6.68;3.70;;;5.10;91.00;;;;;;5053451;28;20052;-68
2022/04/10 03:46:33;;;;;;;7.03;3.33;;;5.10;91.30;;;;;;5053843;28;20079;-68
2022/04/10 03:48:58;;;;;;;4.78;3.83;;;5.10;91.20;;;;;;5053441;28;20466;-69
2022/04/10 03:51:24;;;;;;;6.45;3.72;;;5.10;91.00;;;;;;5053169;28;20021;-68
2022/04/10 03:53:50;;;;;;;5.90;3.58;;;5.10;91.00;;;;;;5053452;28;20033;-68
2022/04/10 03:56:15;;;;;;;5.85;3.22;;;5.10;90.90;;;;;;5052942;28;20060;-68
2022/04/10 03:58:41;;;;;;;6.15;3.35;;;5.10;90.90;;;;;;5053625;28;20324;-69
2022/04/10 04:01:06;;;;;;;8.75;3.50;;;5.10;90.80;;;;;;5052952;28;20448;-71
2022/04/10 04:03:32;;;;;;;5.10;3.53;;;5.10;90.70;;;;;;5053489;28;20021;-68
2022/04/10 04:05:58;;;;;;;5.68;3.40;;;5.10;90.70;;;;;;5053174;28;20029;-68
2022/04/10 04:08:23;;;;;;;7.65;3.78;;;5.10;90.70;;;;;;5052832;28;20430;-69
2022/04/10 04:10:49;;;;;;;7.60;3.90;;;5.00;90.70;;;;;;5053364;28;20032;-67
2022/04/10 04:13:15;;;;;;;5.10;3.40;;;5.00;90.80;;;;;;5052698;28;20343;-68
2022/04/10 04:15:40;;;;;;;7.13;3.75;;;5.00;90.90;;;;;;5053261;28;20466;-68
2022/04/10 04:18:06;;;;;;;6.30;4.20;;;5.00;91.00;;;;;;5053596;28;20065;-69
2022/04/10 04:20:32;;;;;;;6.28;4.05;;;5.00;91.10;;;;;;5052309;28;20071;-69
2022/04/10 04:22:58;;;;;;;5.82;4.07;;;5.00;91.30;;;;;;5051830;28;20120;-69
2022/04/10 04:25:24;;;;;;;5.10;4.00;;;4.90;91.40;;;;;;5052434;28;20115;-68
2022/04/10 04:27:49;;;;;;;6.63;3.75;;;4.90;91.60;;;;;;5053101;28;20410;-68
2022/04/10 04:30:15;;;;;;;6.25;4.18;;;5.00;91.80;;;;;;5052335;28;20033;-68
2022/04/10 04:32:40;;;;;;;12.13;3.92;;;4.90;91.90;;;;;;5052091;28;20049;-68
2022/04/10 04:35:07;;;;;;;5.97;4.47;;;4.90;92.10;;;;;;5053037;28;20071;-68
2022/04/10 04:37:35;;;;;;;7.38;3.85;;;4.90;92.30;;;;;;5052169;28;20025;-68
2022/04/10 04:40:00;;;;;;;7.18;4.05;;;4.90;92.40;;;;;;5052976;28;20036;-68
2022/04/10 04:42:26;;;;;;;8.82;4.78;;;4.80;92.50;;;;;;5051863;28;20037;-68
2022/04/10 04:44:51;;;;;;;7.70;4.65;;;4.80;92.60;;;;;;5050957;28;20036;-69
2022/04/10 04:47:17;;;;;;;8.32;4.07;;;4.80;92.70;;;;;;5051860;28;20036;-68
2022/04/10 04:49:43;;;;;;;7.82;4.28;;;4.80;92.90;;;;;;5052708;28;20078;-68
2022/04/10 04:52:08;;;;;;;6.78;4.20;;;4.80;92.90;;;;;;5052339;28;20078;-68
2022/04/10 04:54:34;;;;;;;8.43;4.10;;;4.80;92.80;;;;;;5051977;28;20373;-69
2022/04/10 04:56:59;;;;;;;7.57;4.07;;;4.80;92.60;;;;;;5051972;28;20060;-67
2022/04/10 04:59:25;;;;;;;7.30;4.10;;;4.80;92.50;;;;;;5050993;28;20036;-68
2022/04/10 05:01:50;;;;;;;6.15;4.35;;;4.80;92.60;;;;;;5051669;28;20033;-68
2022/04/10 05:04:16;;;;;;;8.38;4.00;;;4.80;92.50;;;;;;5050868;28;20036;-68
2022/04/10 05:06:42;;;;;;;6.45;4.10;;;4.80;92.20;;;;;;5051268;28;20029;-67
2022/04/10 05:09:07;;;;;;;8.90;4.05;;;4.80;92.00;;;;;;5051391;28;20021;-67
2022/04/10 05:11:33;;;;;;;5.40;4.00;;;4.90;92.00;;;;;;5050665;28;20343;-69
2022/04/10 05:13:59;;;;;;;6.22;4.10;;;4.90;91.90;;;;;;5050158;28;20358;-68
2022/04/10 05:16:24;;;;;;;7.82;4.72;;;4.90;91.40;;;;;;5050550;28;20068;-68
2022/04/10 05:18:50;;;;;;;7.35;4.00;;;4.90;91.10;;;;;;5051028;28;20108;-69
2022/04/10 05:21:16;;;;;;;7.78;4.43;;;4.90;90.80;;;;;;5048952;28;20445;-69
2022/04/10 05:23:42;;;;;;;7.28;4.55;;;5.00;90.60;;;;;;5050744;28;20056;-69
2022/04/10 05:26:08;;;;;;;9.35;4.68;;;5.00;90.50;;;;;;5050581;28;20025;-67
2022/04/10 05:28:34;;;;;;;10.77;5.03;;;5.00;90.40;;;;;;5049681;28;20445;-68
2022/04/10 05:31:01;;;;;;;8.82;4.50;;;5.00;90.20;;;;;;5050692;28;20021;-69
2022/04/10 05:33:27;;;;;;;5.82;3.75;;;5.10;90.00;;;;;;5048704;28;20025;-68
2022/04/10 05:35:54;;;;;;;6.93;4.32;;;5.10;88.90;;;;;;5050723;28;20036;-68
2022/04/10 05:38:20;;;;;;;8.57;3.72;;;5.20;88.90;;;;;;5050141;28;20024;-68
2022/04/10 05:40:52;;;;;;;7.22;3.88;;;5.20;88.40;;;;;;5050800;28;20150;-69
2022/04/10 05:43:22;;;;;;;6.10;3.55;;;5.30;87.90;;;;;;5050001;28;20061;-68
2022/04/10 05:45:48;;;;;;;6.57;3.67;;;5.30;87.30;;;;;;5047447;28;20026;-69
2022/04/10 05:48:14;;;;;;;4.45;2.50;;;5.40;86.30;;;;;;5048645;28;20437;-72
2022/04/10 05:50:41;;;;;;;5.25;3.40;;;5.50;84.40;;;;;;5050560;28;20053;-68
2022/04/10 05:53:07;;;;;;;7.45;3.00;;;5.50;83.80;;;;;;5050968;28;20108;-69
2022/04/10 05:55:32;;;;;;;3.30;2.53;;;5.60;82.20;;;;;;5010625;28;1112849;-69
2022/04/10 05:57:58;;;;;;;5.97;2.40;;;5.60;80.70;;;;;;5051775;28;20108;-68
2022/04/10 06:00:24;;;;;;;10.18;2.67;;;5.70;79.30;;;;;;5050880;28;20454;-68
2022/04/10 06:02:50;;;;;;;4.43;2.30;;;5.80;78.30;;;;;;5051135;28;20032;-68
2022/04/10 06:05:17;;;;;;;4.78;2.40;;;5.90;77.00;;;;;;5050649;28;20029;-71
2022/04/10 06:07:43;;;;;;;4.00;2.13;;;6.10;74.90;;;;;;5050980;28;20056;-69
2022/04/10 06:10:09;;;;;;;4.60;2.20;;;6.30;72.70;;;;;;5051112;28;20059;-69
2022/04/10 06:12:35;;;;;;;4.68;2.30;;;6.50;72.80;;;;;;5050818;28;20025;-69
2022/04/10 06:15:00;;;;;;;5.78;2.30;;;6.70;70.90;;;;;;5051234;28;20040;-69
2022/04/10 06:17:26;;;;;;;6.70;1.90;;;7.00;70.20;;;;;;5050617;28;20029;-69
2022/04/10 06:19:52;;;;;;;5.15;2.25;;;7.10;67.40;;;;;;5050923;28;20144;-69
2022/04/10 06:22:18;;;;;;;6.35;2.63;;;7.40;67.10;;;;;;5050554;28;20445;-68
2022/04/10 06:24:43;;;;;;;8.13;2.20;;;7.50;66.10;;;;;;5051510;28;20442;-68
2022/04/10 06:27:09;;;;;;;5.80;2.03;;;7.80;65.60;;;;;;5050938;28;20029;-68
2022/04/10 06:29:35;;;;;;;4.90;1.95;;;8.00;64.50;;;;;;5050159;28;20530;-68
2022/04/10 06:32:01;;;;;;;5.35;2.20;;;8.30;63.40;;;;;;5051454;28;20029;-69
2022/04/10 06:34:27;;;;;;;5.38;2.30;;;8.40;61.80;;;;;;5050371;28;20385;-68
2022/04/10 06:36:52;;;;;;;6.25;2.40;;;8.60;60.80;;;;;;5050787;28;20021;-69
2022/04/10 06:39:18;;;;;;;4.43;2.40;;;8.80;60.30;;;;;;5050449;28;20033;-72
2022/04/10 06:41:44;;;;;;;4.32;2.05;;;9.10;59.60;;;;;;5050916;28;20025;-67
2022/04/10 06:44:10;;;;;;;4.95;2.20;;;9.20;58.50;;;;;;5051036;28;20147;-68
2022/04/10 06:46:36;;;;;;;4.03;2.00;;;9.40;57.50;;;;;;5050247;28;20060;-69
2022/04/10 06:49:02;;;;;;;5.75;2.03;;;9.60;56.70;;;;;;5050989;28;20083;-68
2022/04/10 06:51:27;;;;;;;4.53;1.98;;;9.80;54.50;;;;;;5050246;28;20098;-68
2022/04/10 06:53:53;;;;;;;5.07;2.30;;;9.80;54.20;;;;;;5050439;28;20033;-68
2022/04/10 06:56:19;;;;;;;4.88;1.88;;;10.10;53.50;;;;;;5052682;28;20102;-71
2022/04/10 06:58:44;;;;;;;3.13;1.67;;;10.30;52.70;;;;;;5054678;28;20103;-69
2022/04/10 07:01:10;;;;;;;5.25;2.30;;;10.50;51.60;;;;;;5054597;28;20525;-68
2022/04/10 07:03:36;;;;;;;4.10;2.28;;;10.80;50.80;;;;;;5053521;28;20029;-69
2022/04/10 07:06:01;;;;;;;3.25;1.90;;;11.70;51.90;;;;;;5054196;28;20029;-69
2022/04/10 07:08:27;;;;;;;3.22;1.60;;;13.90;47.10;;;;;;5053275;28;20025;-69
2022/04/10 07:10:53;;;;;;;5.70;1.90;;;16.00;43.90;;;;;;5054318;28;20025;-68
2022/04/10 07:13:28;;;;;;;4.18;2.05;;;16.80;40.10;;;;;;5054193;28;20037;-68
2022/04/10 07:15:53;;;;;;;3.42;2.00;;;18.00;37.30;;;;;;5053588;28;20473;-68
2022/04/10 07:18:19;;;;;;;3.45;1.42;;;17.20;37.30;;;;;;5054147;28;20029;-67
2022/04/10 07:20:46;;;;;;;3.42;1.90;;;17.70;36.90;;;;;;5053431;28;20528;-68
2022/04/10 07:25:56;;;;;;;4.53;2.00;;;19.70;34.20;;;;;;5053794;28;20503;-68
2022/04/10 07:28:22;;;;;;;3.63;1.58;;;20.50;32.20;;;;;;5053272;28;20407;-68
2022/04/10 07:30:48;;;;;;;3.13;1.63;;;21.30;31.00;;;;;;5053551;28;20063;-67
2022/04/10 07:33:14;;;;;;;4.70;1.70;;;21.90;29.80;;;;;;5053900;28;20358;-67
2022/04/10 07:35:44;;;;;;;4.00;1.95;;;21.20;29.80;;;;;;5052926;28;20028;-68
2022/04/10 07:38:10;;;;;;;4.00;1.60;;;20.60;29.80;;;;;;5053947;28;20028;-68
2022/04/10 07:40:39;;;;;;;4.15;1.80;;;21.00;29.60;;;;;;5052810;28;20039;-69
2022/04/10 07:43:05;;;;;;;3.75;1.70;;;20.50;29.70;;;;;;5053662;28;20025;-67
2022/04/10 07:48:16;;;;;;;3.63;1.58;;;20.40;29.60;;;;;;5053624;28;20398;-69
2022/04/10 07:50:42;;;;;;;5.40;1.90;;;20.10;29.30;;;;;;5052542;28;20469;-68
2022/04/10 07:53:08;;;;;;;3.58;1.45;;;20.20;28.50;;;;;;5053426;28;20099;-68
2022/04/10 07:55:34;;;;;;;5.70;1.00;;;18.20;30.00;;;;;;5051926;28;20049;-68
2022/04/10 07:58:00;;;;;;;2.13;1.13;;;18.70;29.90;;;;;;5053210;28;20116;-68
2022/04/10 08:00:26;;;;;;;2.95;1.20;;;20.00;29.50;;;;;;5052375;28;20029;-69
2022/04/10 08:02:55;;;;;;;3.10;1.23;;;20.90;27.80;;;;;;5053254;28;20029;-69
2022/04/10 08:05:20;;;;;;;4.05;1.23;;;20.50;28.70;;;;;;5053350;28;20032;-69
2022/04/10 08:07:46;;;;;;;3.47;1.10;;;19.60;28.30;;;;;;5051637;28;20029;-68
2022/04/10 08:10:13;;;;;;;3.50;1.25;;;19.90;28.50;;;;;;5051847;28;20445;-68
2022/04/10 08:12:43;;;;;;;3.22;1.30;;;20.00;28.60;;;;;;5052240;28;20092;-68
2022/04/10 08:15:10;;;;;;;4.13;1.27;;;20.40;28.90;;;;;;5052701;28;20478;-69
2022/04/10 08:17:35;;;;;;;4.55;1.20;;;19.50;29.10;;;;;;5050998;28;20116;-69
2022/04/10 08:20:04;;;;;;;3.95;1.33;;;20.70;29.60;;;;;;5052926;28;20055;-69
2022/04/10 08:22:31;;;;;;;4.03;1.23;;;20.80;28.00;;;;;;5051187;28;20037;-69
2022/04/10 08:25:04;;;;;;;3.10;1.30;;;20.00;28.40;;;;;;5053021;28;20037;-68
2022/04/10 08:27:30;;;;;;;4.18;1.45;;;20.80;28.40;;;;;;5052300;28;20072;-69
2022/04/10 08:29:57;;;;;;;3.50;1.40;;;19.90;28.80;;;;;;5054112;28;20029;-69
2022/04/10 08:32:22;;;;;;;3.65;1.10;;;20.20;30.00;;;;;;5060992;28;20028;-68
2022/04/10 08:34:48;;;;;;;4.93;1.33;;;21.00;30.10;;;;;;5061273;28;20032;-69
2022/04/10 08:37:14;;;;;;;2.55;1.05;;;21.10;27.40;;;;;;5051980;28;20025;-68
2022/04/10 08:39:39;;;;;;;3.70;1.15;;;21.10;29.30;;;;;;5051953;28;20017;-68
2022/04/10 08:42:06;;;;;;;4.07;1.10;;;20.10;28.60;;;;;;5052868;28;20381;-68
2022/04/10 08:44:32;;;;;;;4.05;1.10;;;19.30;29.00;;;;;;5065969;28;20031;-69
2022/04/10 08:46:59;;;;;;;3.60;1.33;;;18.20;30.40;;;;;;5072596;28;20024;-68
2022/04/10 08:49:26;;;;;;;5.05;1.45;;;17.40;32.50;;;;;;5072498;28;20028;-70
2022/04/10 08:51:53;;;;;;;5.20;1.52;;;16.30;31.80;;;;;;5071660;28;20060;-70
2022/04/10 08:54:20;;;;;;;3.72;1.58;;;15.30;32.70;;;;;;5066243;28;20070;-69
2022/04/10 08:56:46;;;;;;;3.33;1.50;;;14.70;34.10;;;;;;5060895;28;20098;-69
2022/04/10 08:59:11;;;;;;;6.25;1.60;;;14.20;34.90;;;;;;5072064;28;20389;-69
2022/04/10 09:01:37;;;;;;;6.50;1.50;;;13.90;36.10;;;;;;5071154;28;20025;-67
2022/04/10 09:04:04;;;;;;;5.88;1.60;;;13.50;37.60;;;;;;5071880;28;20016;-68
2022/04/10 09:06:30;;;;;;;3.72;1.55;;;13.40;38.20;;;;;;5071400;28;20028;-67
2022/04/10 09:09:12;;;;;;;4.00;1.85;;;13.20;40.60;;;;;;5071743;28;20029;-70
2022/04/10 09:11:39;;;;;;;2.63;1.33;;;13.10;40.20;;;;;;5056384;28;20032;-70
2022/04/10 09:14:06;;;;;;;4.13;1.90;;;12.90;39.40;;;;;;5052177;28;20033;-73
2022/04/10 09:16:32;;;;;;;6.85;1.73;;;12.80;39.80;;;;;;5051337;28;20033;-67
2022/04/10 09:19:00;;;;;;;5.93;1.98;;;12.50;41.30;;;;;;5051553;28;20486;-69
2022/04/10 09:21:33;;;;;;;4.63;1.83;;;12.10;40.00;;;;;;5051999;28;20036;-69
2022/04/10 09:24:04;;;;;;;7.97;2.60;;;11.50;41.60;;;;;;5052053;28;20486;-68
2022/04/10 09:26:55;;;;;;;4.18;1.90;;;10.90;42.50;;;;;;5051269;28;20033;-70
2022/04/10 09:29:22;;;;;;;4.55;1.98;;;10.50;43.90;;;;;;5051972;28;20090;-68
2022/04/10 09:31:49;;;;;;;4.25;1.80;;;10.50;45.10;;;;;;5050738;28;20486;-68
2022/04/10 09:34:17;;;;;;;7.15;2.10;;;10.80;45.60;;;;;;5051695;28;20098;-69
2022/04/10 09:36:48;;;;;;;3.75;1.90;;;10.90;45.30;;;;;;5050167;28;20440;-69
2022/04/10 09:39:30;;;;;;;2.92;1.60;;;11.20;45.10;;;;;;5052151;28;20029;-69
2022/04/10 09:42:07;;;;;;;5.50;1.60;;;11.50;46.20;;;;;;5051734;28;20163;-70
2022/04/10 09:44:34;;;;;;;3.17;1.52;;;11.60;44.50;;;;;;5050946;28;20033;-69
2022/04/10 09:47:08;;;;;;;5.93;2.10;;;11.70;44.90;;;;;;5051563;28;20025;-70
2022/04/10 09:49:39;;;;;;;5.20;1.67;;;11.60;44.30;;;;;;5051019;28;20029;-69
2022/04/10 09:52:07;;;;;;;2.75;1.75;;;11.50;44.60;;;;;;5051858;28;20373;-69
2022/04/10 09:54:36;;;;;;;5.50;1.67;;;11.10;41.80;;;;;;5050509;28;20448;-69
2022/04/10 09:57:03;;;;;;;4.40;2.10;;;11.00;42.70;;;;;;5051336;28;20055;-69
2022/04/10 09:59:36;;;;;;;4.07;1.75;;;11.00;43.20;;;;;;5051254;28;20029;-77
2022/04/10 10:02:04;;;;;;;3.20;1.52;;;11.10;43.20;;;;;;5051760;28;20382;-69
2022/04/10 10:04:33;;;;;;;5.05;1.90;;;11.30;43.30;;;;;;5050865;28;20040;-73
2022/04/10 10:06:59;;;;;;;3.67;1.67;;;11.40;40.60;;;;;;5051409;28;20025;-69
2022/04/10 10:09:25;;;;;;;5.93;1.90;;;11.60;41.30;;;;;;5051257;28;20021;-69
2022/04/10 10:11:51;;;;;;;2.78;1.63;;;11.90;41.30;;;;;;5050731;28;20135;-70
2022/04/10 10:14:17;;;;;;;2.97;1.50;;;12.00;39.90;;;;;;5051734;28;20517;-69
2022/04/10 10:16:45;;;;;;;4.72;1.70;;;12.10;39.30;;;;;;5050500;28;20039;-69
2022/04/10 10:19:10;;;;;;;40.47;5.25;;;12.10;40.10;;;;;;5051066;28;20544;-69
2022/04/10 10:21:36;;;;;;;13.57;3.38;;;12.10;46.20;;;;;;5050533;28;20113;-70
2022/04/10 10:24:04;;;;;;;22.60;4.60;;;12.00;49.30;;;;;;5051483;28;20374;-70
2022/04/10 10:26:43;;;;;;;13.18;3.05;;;11.90;54.00;;;;;;5050988;28;20033;-72
2022/04/10 10:29:43;;;;;;;20.10;3.78;;;11.60;54.50;;;;;;5051251;28;20091;-69
2022/04/10 10:32:15;;;;;;;7.25;3.20;;;11.50;52.90;;;;;;5054606;28;20025;-69
2022/04/10 10:34:42;;;;;;;7.45;3.38;;;11.30;54.50;;;;;;5054557;28;20522;-68
2022/04/10 10:37:08;;;;;;;8.05;3.28;;;11.20;57.80;;;;;;5054975;28;20488;-68
2022/04/10 10:39:49;;;;;;;6.45;2.97;;;10.90;55.90;;;;;;5054061;28;20021;-67
2022/04/10 10:42:15;;;;;;;;;;;11.00;58.50;;;;;;5055161;28;20059;-68
2022/04/10 10:44:50;;;;;;;3.80;2.22;;;10.90;49.90;;;;;;5054140;28;19905;-68
2022/04/10 10:47:18;;;;;;;4.70;2.20;;;10.80;49.70;;;;;;5054713;28;20090;-68
2022/04/10 10:49:46;;;;;;;4.47;2.08;;;10.70;47.70;;;;;;5053985;28;20029;-68
2022/04/10 10:52:13;;;;;;;2.60;1.85;;;10.60;46.70;;;;;;5054430;28;20025;-68
2022/04/10 10:54:52;;;;;;;3.28;2.20;;;10.40;45.90;;;;;;5053836;28;20029;-68
2022/04/10 10:57:37;;;;;;;3.95;1.65;;;10.40;46.50;;;;;;5054552;28;20057;-67
2022/04/10 11:00:06;;;;;;;6.90;2.25;;;10.20;45.80;;;;;;5054707;28;20067;-69
2022/04/10 11:02:35;;;;;;;5.07;2.72;;;10.20;47.10;;;;;;5053793;28;20070;-68
2022/04/10 11:05:25;;;;;;;4.75;2.38;;;9.90;50.90;;;;;;5054083;28;20064;-68
2022/04/10 11:08:09;;;;;;;4.53;2.60;;;9.80;52.00;;;;;;5053710;28;20037;-67
2022/04/10 11:10:50;;;;;;;5.18;3.30;;;9.60;53.40;;;;;;5053504;28;20025;-69
2022/04/10 11:13:18;;;;;;;7.57;3.33;;;9.50;55.90;;;;;;5034392;28;20017;-69
2022/04/10 11:15:52;;;;;;;4.40;3.28;;;9.60;56.90;;;;;;5033501;28;20130;-68
2022/04/10 11:18:29;;;;;;;4.97;2.40;;;9.70;57.30;;;;;;5034178;28;20084;-68
2022/04/10 11:21:17;;;;;;;4.82;2.42;;;9.80;54.40;;;;;;5033608;28;20036;-68
2022/04/10 11:23:45;;;;;;;5.38;2.30;;;9.90;54.10;;;;;;5033022;28;20501;-69
2022/04/10 11:26:35;;;;;;;2.85;1.90;;;9.90;52.40;;;;;;5034017;28;20048;-69
2022/04/10 11:29:00;;;;;;;5.25;2.60;;;10.00;51.80;;;;;;5034094;28;20419;-68
2022/04/10 11:31:50;;;;;;;5.65;1.95;;;10.00;50.70;;;;;;5033943;28;20036;-69
2022/04/10 11:34:20;;;;;;;3.47;1.65;;;10.00;50.20;;;;;;5033920;28;20536;-69
2022/04/10 11:36:55;;;;;;;2.22;1.88;;;10.00;47.70;;;;;;5032797;28;20405;-69
2022/04/10 11:39:33;;;;;;;2.92;1.88;;;10.00;48.50;;;;;;5034079;28;20034;-69
2022/04/10 11:42:11;;;;;;;7.18;2.75;;;9.60;50.90;;;;;;5033789;28;20029;-68
2022/04/10 11:44:39;;;;;;;6.45;2.70;;;9.30;58.90;;;;;;5033339;28;20037;-68
2022/04/10 11:47:05;;;;;;;4.40;2.80;;;9.30;62.00;;;;;;5032862;28;20045;-68
2022/04/10 11:49:31;;;;;;;3.70;2.40;;;9.20;62.30;;;;;;5033392;28;20118;-71
2022/04/10 11:51:59;;;;;;;4.25;3.22;;;9.20;64.30;;;;;;5033581;28;20470;-68
2022/04/10 11:54:31;;;;;;;3.35;2.47;;;9.20;64.20;;;;;;5040090;28;20032;-68
2022/04/10 11:56:59;;;;;;;3.78;3.03;;;9.20;65.90;;;;;;5053576;28;20045;-69
2022/04/10 11:59:25;;;;;;;3.13;2.42;;;9.20;66.80;;;;;;5053678;28;20036;-69
2022/04/10 12:01:53;;;;;;;3.80;2.70;;;9.30;67.60;;;;;;5052933;28;20687;-69
2022/04/10 12:04:19;;;;;;;3.13;2.20;;;9.30;66.70;;;;;;5053488;28;20028;-69
2022/04/10 12:06:46;;;;;;;3.95;2.38;;;9.20;65.30;;;;;;5052894;28;20086;-69
2022/04/10 12:09:12;;;;;;;3.25;2.38;;;9.30;64.20;;;;;;5053148;28;20025;-68
2022/04/10 12:11:42;;;;;;;2.85;2.40;;;9.40;63.90;;;;;;5052600;28;20025;-68
2022/04/10 12:14:24;;;;;;;6.72;2.30;;;9.50;64.10;;;;;;5053371;28;20061;-69
2022/04/10 12:16:52;;;;;;;4.70;2.22;;;9.60;60.30;;;;;;5052711;28;20078;-69
2022/04/10 12:19:38;;;;;;;6.68;2.55;;;9.70;60.00;;;;;;5053233;28;20032;-68
2022/04/10 12:22:05;;;;;;;4.38;2.22;;;9.70;60.30;;;;;;5053007;28;20141;-68
2022/04/10 12:24:32;;;;;;;3.75;1.80;;;9.70;56.20;;;;;;5053034;28;20033;-68
2022/04/10 12:26:58;;;;;;;3.05;1.80;;;9.70;53.30;;;;;;5053204;28;20102;-68
2022/04/10 12:29:27;;;;;;;3.28;1.60;;;9.70;52.90;;;;;;5052853;28;20422;-69
2022/04/10 12:31:54;;;;;;;4.80;2.33;;;9.80;53.60;;;;;;5052048;28;20359;-68
2022/04/10 12:34:23;;;;;;;4.30;2.00;;;9.90;54.70;;;;;;5053066;28;20021;-68
2022/04/10 12:36:52;;;;;;;3.58;2.10;;;9.80;52.60;;;;;;5051772;28;20140;-68
2022/04/10 12:39:28;;;;;;;3.80;2.50;;;9.70;54.70;;;;;;5052798;28;20430;-68
2022/04/10 12:42:20;;;;;;;4.60;2.60;;;9.70;56.90;;;;;;5052185;28;20523;-68
2022/04/10 12:44:58;;;;;;;6.18;2.67;;;9.40;61.70;;;;;;5051044;28;20124;-68
2022/04/10 12:47:45;;;;;;;3.58;2.75;;;9.00;70.30;;;;;;5052432;28;20053;-67
2022/04/10 12:50:19;;;;;;;3.97;2.85;;;8.40;74.20;;;;;;5052443;28;20501;-68
2022/04/10 12:55:36;;;;;;;4.03;2.55;;;8.00;81.30;;;;;;5052010;28;20039;-70
2022/04/10 12:58:04;;;;;;;3.10;2.78;;;7.90;84.20;;;;;;5052781;28;20033;-69
2022/04/10 13:00:44;;;;;;;4.00;3.60;;;7.90;86.60;;;;;;5052218;28;20466;-69
2022/04/10 13:03:19;;;;;;;4.07;3.08;;;7.80;89.60;;;;;;5052652;28;20036;-67
2022/04/10 13:05:55;;;;;;;3.97;3.15;;;7.80;91.90;;;;;;5051599;28;20039;-67
2022/04/10 13:08:24;;;;;;;5.88;3.35;;;7.80;91.70;;;;;;5051956;28;20385;-67